Time;durP1;ratioP1;P1;durP2;ratioP2;P2;SDS_P1;SDS_P2;PMS_P1;PMS_P2;Temp;Humidity;BMP_temperature;BMP_pressure;BME280_temperature;BME280_humidity;BME280_pressure;Samples;Min_cycle;Max_cycle;Signal;HPM_P1;HPM_P2
2022/04/17 00:00:55;;;;;;;6.00;0.33;;;7.30;99.90;;;;;;5000325;28;20266;-83
2022/04/17 00:03:24;;;;;;;0.13;0.13;;;7.30;99.90;;;;;;5006284;28;20195;-83
2022/04/17 00:05:51;;;;;;;0.37;0.20;;;7.20;99.90;;;;;;4999183;28;20230;-82
2022/04/17 00:08:16;;;;;;;1.50;0.43;;;7.20;99.90;;;;;;5003987;28;20226;-82
2022/04/17 00:10:44;;;;;;;0.67;0.67;;;7.20;99.90;;;;;;5014343;28;20210;-84
2022/04/17 00:13:10;;;;;;;0.50;0.50;;;7.20;99.90;;;;;;5005941;28;20553;-83
2022/04/17 00:15:35;;;;;;;0.20;0.20;;;7.10;99.90;;;;;;5001603;28;20279;-84
2022/04/17 00:18:01;;;;;;;0.40;0.40;;;7.10;99.90;;;;;;4999249;28;21232;-84
2022/04/17 00:20:26;;;;;;;0.53;0.27;;;7.10;99.90;;;;;;5005382;28;20187;-84
2022/04/17 00:22:52;;;;;;;0.33;0.33;;;7.10;99.90;;;;;;5005487;28;20327;-84
2022/04/17 00:25:18;;;;;;;0.20;0.20;;;7.10;99.90;;;;;;4999759;28;20209;-84
2022/04/17 00:27:44;;;;;;;0.73;0.27;;;7.10;99.90;;;;;;5015245;28;20216;-84
2022/04/17 00:30:10;;;;;;;0.40;0.40;;;7.10;99.90;;;;;;5006020;28;20212;-84
2022/04/17 00:32:36;;;;;;;0.33;0.33;;;7.10;99.90;;;;;;5005505;28;20568;-84
2022/04/17 00:35:07;;;;;;;0.33;0.33;;;7.00;99.90;;;;;;5005186;28;20196;-84
2022/04/17 00:37:33;;;;;;;0.10;0.10;;;7.10;99.90;;;;;;5000468;28;20265;-84
2022/04/17 00:39:58;;;;;;;0.10;0.10;;;7.00;99.90;;;;;;5006444;28;20192;-84
2022/04/17 00:42:24;;;;;;;0.20;0.20;;;7.00;99.90;;;;;;5004896;28;20191;-84
2022/04/17 00:44:50;;;;;;;0.33;0.23;;;6.90;99.90;;;;;;5005287;28;20201;-84
2022/04/17 00:47:18;;;;;;;1.03;0.93;;;6.90;99.90;;;;;;5004983;28;20286;-84
2022/04/17 00:49:45;;;;;;;0.30;0.30;;;6.90;99.90;;;;;;5013435;28;20218;-84
2022/04/17 00:52:11;;;;;;;0.30;0.30;;;6.90;99.90;;;;;;5005431;28;20194;-84
2022/04/17 00:54:44;;;;;;;1.03;0.30;;;6.90;99.90;;;;;;4997051;28;20748;-84
2022/04/17 00:57:12;;;;;;;0.10;0.10;;;6.90;99.90;;;;;;5013944;28;20218;-84
2022/04/17 00:59:40;;;;;;;0.17;0.17;;;6.90;99.90;;;;;;4999750;28;21004;-84
2022/04/17 01:02:06;;;;;;;0.27;0.27;;;6.90;99.90;;;;;;4997584;28;20191;-84
2022/04/17 01:04:32;;;;;;;0.10;0.10;;;6.80;99.90;;;;;;5005019;28;20206;-84
2022/04/17 01:06:58;;;;;;;0.10;0.10;;;6.80;99.90;;;;;;5004899;28;20231;-83
2022/04/17 01:09:23;;;;;;;0.50;0.50;;;6.80;99.90;;;;;;5004854;28;20202;-84
2022/04/17 01:11:51;;;;;;;0.10;0.10;;;6.70;99.90;;;;;;4999150;28;20207;-84
2022/04/17 01:14:17;;;;;;;0.70;0.30;;;6.70;99.90;;;;;;5004476;28;20195;-85
2022/04/17 01:16:43;;;;;;;0.10;0.10;;;6.70;99.90;;;;;;4999705;28;20187;-84
2022/04/17 01:19:11;;;;;;;0.30;0.30;;;6.60;99.90;;;;;;5005571;28;20188;-84
2022/04/17 01:21:41;;;;;;;0.10;0.10;;;6.60;99.90;;;;;;4996671;28;21239;-84
2022/04/17 01:26:57;;;;;;;0.10;0.10;;;6.70;99.90;;;;;;4999817;28;20230;-84
2022/04/17 01:29:30;;;;;;;0.40;0.40;;;6.60;99.90;;;;;;5006114;28;20278;-83
2022/04/17 01:31:56;;;;;;;0.17;0.17;;;6.60;99.90;;;;;;5000140;28;21074;-84
2022/04/17 01:34:23;;;;;;;0.10;0.10;;;6.60;99.90;;;;;;4998873;28;20222;-84
2022/04/17 01:36:49;;;;;;;0.40;0.40;;;6.60;99.90;;;;;;5001117;28;20194;-84
2022/04/17 01:39:16;;;;;;;0.10;0.10;;;6.50;99.90;;;;;;5004646;28;20191;-84
2022/04/17 01:41:42;;;;;;;0.20;0.10;;;6.50;99.90;;;;;;4998473;28;20199;-84
2022/04/17 01:44:08;;;;;;;0.10;0.10;;;6.50;99.90;;;;;;5004402;28;20850;-84
2022/04/17 01:46:34;;;;;;;0.00;0.00;;;6.50;99.90;;;;;;5005373;28;20206;-84
2022/04/17 01:49:00;;;;;;;0.20;0.20;;;6.50;99.90;;;;;;5006743;28;20836;-84
2022/04/17 01:51:26;;;;;;;0.20;0.20;;;6.50;99.90;;;;;;4997987;28;20218;-84
2022/04/17 01:53:52;;;;;;;0.30;0.30;;;6.50;99.90;;;;;;4998120;28;20190;-84
2022/04/17 01:56:17;;;;;;;1.10;0.50;;;6.40;99.90;;;;;;5008802;28;20223;-83
2022/04/17 01:58:44;;;;;;;0.43;0.43;;;6.50;99.90;;;;;;5008052;28;20250;-85
2022/04/17 02:01:09;;;;;;;0.10;0.10;;;6.50;99.90;;;;;;5008607;28;20279;-84
2022/04/17 02:03:35;;;;;;;0.50;0.50;;;6.40;99.90;;;;;;5007904;28;20725;-84
2022/04/17 02:06:00;;;;;;;1.10;0.37;;;6.40;99.90;;;;;;5008014;28;20563;-84
2022/04/17 02:08:29;;;;;;;0.10;0.10;;;6.40;99.90;;;;;;5003470;28;20218;-84
2022/04/17 02:10:55;;;;;;;0.10;0.10;;;6.40;99.90;;;;;;5006872;28;20215;-84
2022/04/17 02:13:22;;;;;;;0.10;0.10;;;6.40;99.90;;;;;;5008184;28;20206;-84
2022/04/17 02:15:51;;;;;;;0.10;0.10;;;6.40;99.90;;;;;;5018161;28;20614;-84
2022/04/17 02:18:16;;;;;;;0.27;0.27;;;6.30;99.90;;;;;;5009126;28;20215;-83
2022/04/17 02:20:42;;;;;;;0.60;0.50;;;6.40;99.90;;;;;;5007084;28;20198;-84
2022/04/17 02:23:07;;;;;;;0.20;0.20;;;6.30;99.90;;;;;;5008853;28;20195;-84
2022/04/17 02:25:33;;;;;;;0.50;0.50;;;6.20;99.90;;;;;;5016239;28;20238;-84
2022/04/17 02:27:58;;;;;;;0.20;0.20;;;6.20;99.90;;;;;;5002448;28;20285;-84
2022/04/17 02:30:24;;;;;;;0.20;0.20;;;6.20;99.90;;;;;;5017629;28;20203;-84
2022/04/17 02:32:49;;;;;;;1.17;0.30;;;6.20;99.90;;;;;;5000317;28;20262;-84
2022/04/17 02:35:17;;;;;;;0.10;0.10;;;6.10;99.90;;;;;;5007561;28;20189;-84
2022/04/17 02:37:42;;;;;;;0.70;0.13;;;6.20;99.90;;;;;;5019850;28;20314;-84
2022/04/17 02:40:08;;;;;;;0.20;0.20;;;6.20;99.90;;;;;;5007975;28;20265;-83
2022/04/17 02:42:34;;;;;;;0.10;0.10;;;6.20;99.90;;;;;;5002674;28;20191;-84
2022/04/17 02:44:59;;;;;;;0.20;0.20;;;6.20;99.90;;;;;;5008110;28;20811;-83
2022/04/17 02:47:43;;;;;;;0.10;0.10;;;6.20;99.90;;;;;;5006850;28;20203;-83
2022/04/17 02:50:09;;;;;;;0.20;0.20;;;6.20;99.90;;;;;;5006622;28;20198;-84
2022/04/17 02:52:35;;;;;;;0.30;0.30;;;6.10;99.90;;;;;;5001977;28;20636;-84
2022/04/17 02:55:01;;;;;;;1.70;0.50;;;6.10;99.90;;;;;;5008618;28;20215;-84
2022/04/17 02:57:28;;;;;;;0.20;0.20;;;6.10;99.90;;;;;;5002092;28;20195;-84
2022/04/17 02:59:54;;;;;;;0.20;0.20;;;6.10;99.90;;;;;;5000993;28;20195;-84
2022/04/17 03:07:47;;;;;;;0.30;0.30;;;6.00;99.90;;;;;;5001823;28;20226;-84
2022/04/17 03:10:13;;;;;;;0.67;0.67;;;6.00;99.90;;;;;;5008145;28;20207;-84
2022/04/17 03:12:39;;;;;;;0.87;0.23;;;6.00;99.90;;;;;;5007804;28;20210;-84
2022/04/17 03:15:06;;;;;;;0.00;0.00;;;6.00;99.90;;;;;;5000777;28;20832;-83
2022/04/17 03:17:32;;;;;;;0.23;0.23;;;5.90;99.90;;;;;;4999610;28;20199;-84
2022/04/17 03:19:57;;;;;;;0.10;0.10;;;5.90;99.90;;;;;;5007015;28;20195;-84
2022/04/17 03:22:24;;;;;;;0.50;0.50;;;5.90;99.90;;;;;;5008214;28;20195;-84
2022/04/17 03:24:50;;;;;;;0.10;0.10;;;5.90;99.90;;;;;;5003774;28;20191;-83
2022/04/17 03:27:15;;;;;;;0.50;0.50;;;5.90;99.90;;;;;;5007917;28;20218;-85
2022/04/17 03:29:41;;;;;;;0.13;0.13;;;5.80;99.90;;;;;;5007594;28;20314;-84
2022/04/17 03:32:06;;;;;;;0.40;0.20;;;5.80;99.90;;;;;;5007174;28;20194;-84
2022/04/17 03:34:32;;;;;;;0.10;0.10;;;5.70;99.90;;;;;;5002862;28;20187;-84
2022/04/17 03:37:00;;;;;;;0.07;0.07;;;5.70;99.90;;;;;;5007284;28;20187;-83
2022/04/17 03:39:26;;;;;;;0.83;0.30;;;5.70;99.90;;;;;;5006568;28;20329;-84
2022/04/17 03:41:54;;;;;;;0.17;0.17;;;5.70;99.90;;;;;;5001075;28;20303;-83
2022/04/17 03:44:20;;;;;;;0.10;0.10;;;5.60;99.90;;;;;;5007499;28;20180;-83
2022/04/17 03:46:47;;;;;;;0.10;0.10;;;5.60;99.90;;;;;;5000122;28;20561;-83
2022/04/17 03:49:13;;;;;;;0.10;0.10;;;5.60;99.90;;;;;;5015839;28;20191;-84
2022/04/17 03:51:39;;;;;;;0.13;0.10;;;5.50;99.90;;;;;;5006811;28;20211;-83
2022/04/17 03:54:05;;;;;;;0.10;0.10;;;5.50;99.90;;;;;;5006552;28;20219;-84
2022/04/17 03:56:30;;;;;;;0.10;0.10;;;5.50;99.90;;;;;;4996550;28;20187;-84
2022/04/17 03:58:56;;;;;;;0.13;0.13;;;5.50;99.90;;;;;;5007603;28;20207;-84
2022/04/17 04:01:22;;;;;;;1.00;0.20;;;5.50;99.90;;;;;;5007782;28;20206;-84
2022/04/17 04:03:47;;;;;;;0.30;0.30;;;5.40;99.90;;;;;;5014541;28;20549;-84
2022/04/17 04:06:13;;;;;;;0.10;0.10;;;5.40;99.90;;;;;;5001555;28;20266;-83
2022/04/17 04:08:39;;;;;;;0.17;0.17;;;5.40;99.90;;;;;;5000011;28;20218;-84
2022/04/17 04:11:05;;;;;;;0.23;0.17;;;5.40;99.90;;;;;;5007055;28;20260;-84
2022/04/17 04:13:32;;;;;;;0.10;0.10;;;5.40;99.90;;;;;;5005277;28;20196;-83
2022/04/17 04:15:58;;;;;;;0.50;0.50;;;5.40;99.90;;;;;;4997133;28;20278;-83
2022/04/17 04:18:24;;;;;;;0.00;0.00;;;5.30;99.90;;;;;;5003530;28;20294;-84
2022/04/17 04:20:49;;;;;;;0.73;0.20;;;5.40;99.90;;;;;;4996309;28;20187;-84
2022/04/17 04:23:16;;;;;;;0.10;0.10;;;5.40;99.90;;;;;;5016656;28;20278;-84
2022/04/17 04:25:41;;;;;;;0.27;0.27;;;5.40;99.90;;;;;;4998669;28;20234;-84
2022/04/17 04:30:51;;;;;;;0.10;0.10;;;5.40;99.90;;;;;;5000086;28;20261;-84
2022/04/17 04:33:17;;;;;;;0.23;0.23;;;5.40;99.90;;;;;;5000625;28;20599;-84
2022/04/17 04:35:42;;;;;;;0.13;0.13;;;5.40;99.90;;;;;;5000856;28;20187;-83
2022/04/17 04:38:08;;;;;;;0.10;0.10;;;5.40;99.90;;;;;;5014518;28;20249;-83
2022/04/17 04:40:33;;;;;;;0.10;0.10;;;5.30;99.90;;;;;;5006391;28;20245;-83
2022/04/17 04:43:00;;;;;;;0.10;0.10;;;5.30;99.90;;;;;;5006219;28;20191;-84
2022/04/17 04:48:10;;;;;;;0.20;0.20;;;5.30;99.90;;;;;;5001912;28;20297;-84
2022/04/17 04:50:36;;;;;;;0.47;0.20;;;5.30;99.90;;;;;;5005058;28;20784;-83
2022/04/17 04:53:02;;;;;;;0.10;0.10;;;5.40;99.90;;;;;;5005262;28;20607;-83
2022/04/17 04:55:28;;;;;;;0.43;0.43;;;5.40;99.90;;;;;;4998192;28;20274;-83
2022/04/17 04:57:54;;;;;;;0.17;0.17;;;5.40;99.90;;;;;;5004658;28;20210;-84
2022/04/17 05:00:19;;;;;;;0.10;0.10;;;5.50;99.90;;;;;;5003553;28;21308;-83
2022/04/17 05:02:45;;;;;;;0.10;0.10;;;5.60;99.90;;;;;;5013194;28;20266;-83
2022/04/17 05:05:10;;;;;;;0.10;0.10;;;5.60;99.90;;;;;;4997446;28;20183;-83
2022/04/17 05:07:37;;;;;;;0.10;0.10;;;5.60;99.90;;;;;;4995703;28;20353;-83
2022/04/17 05:10:04;;;;;;;0.33;0.33;;;5.70;99.90;;;;;;4999839;28;20622;-83
2022/04/17 05:12:30;;;;;;;0.10;0.10;;;5.80;99.90;;;;;;4999118;28;20178;-83
2022/04/17 05:14:55;;;;;;;0.40;0.40;;;5.90;99.90;;;;;;4995466;28;20699;-84
2022/04/17 05:17:21;;;;;;;0.10;0.10;;;5.90;99.90;;;;;;5003732;28;20210;-84
2022/04/17 05:19:46;;;;;;;0.10;0.10;;;6.00;99.90;;;;;;5004943;28;20675;-83
2022/04/17 05:22:16;;;;;;;0.10;0.10;;;6.10;99.90;;;;;;5004530;28;20256;-84
2022/04/17 05:24:44;;;;;;;0.30;0.20;;;6.10;99.90;;;;;;4999017;28;20189;-84
2022/04/17 05:27:12;;;;;;;0.20;0.20;;;6.20;99.90;;;;;;5004806;28;20214;-84
2022/04/17 05:29:37;;;;;;;0.30;0.30;;;6.30;99.90;;;;;;4998446;28;20191;-84
2022/04/17 05:32:03;;;;;;;0.47;0.27;;;6.40;99.90;;;;;;5004770;28;20599;-84
2022/04/17 05:34:29;;;;;;;0.10;0.10;;;6.50;99.90;;;;;;4999663;28;20661;-84
2022/04/17 05:36:55;;;;;;;0.10;0.10;;;6.60;99.90;;;;;;5004688;28;20330;-84
2022/04/17 05:39:20;;;;;;;0.30;0.30;;;6.70;99.90;;;;;;5007260;28;20733;-84
2022/04/17 05:41:47;;;;;;;0.57;0.27;;;6.70;99.90;;;;;;5005601;28;20194;-84
2022/04/17 05:44:14;;;;;;;0.40;0.30;;;6.90;99.90;;;;;;5006635;28;20184;-83
2022/04/17 05:46:41;;;;;;;0.13;0.13;;;7.10;99.90;;;;;;4998709;28;20708;-84
2022/04/17 05:49:07;;;;;;;0.10;0.10;;;7.20;99.90;;;;;;4999974;28;20241;-84
2022/04/17 05:51:35;;;;;;;0.43;0.43;;;7.30;99.90;;;;;;5004292;28;20690;-84
2022/04/17 05:54:05;;;;;;;0.30;0.30;;;7.30;99.90;;;;;;5014142;28;20184;-84
2022/04/17 05:56:31;;;;;;;0.20;0.20;;;7.30;99.90;;;;;;4998118;28;20600;-84
2022/04/17 05:58:56;;;;;;;0.17;0.17;;;7.50;99.90;;;;;;5015524;28;20211;-84
2022/04/17 06:01:22;;;;;;;0.27;0.23;;;7.70;99.90;;;;;;5004147;28;20195;-84
2022/04/17 06:03:49;;;;;;;0.10;0.10;;;7.70;99.90;;;;;;4998096;28;20212;-83
2022/04/17 06:06:16;;;;;;;0.20;0.20;;;7.80;99.90;;;;;;5005160;28;21104;-84
2022/04/17 06:08:41;;;;;;;0.27;0.23;;;8.00;99.90;;;;;;4998315;28;20235;-84
2022/04/17 06:11:07;;;;;;;0.37;0.37;;;8.00;99.90;;;;;;5004294;28;20211;-84
2022/04/17 06:13:32;;;;;;;0.10;0.10;;;8.10;99.90;;;;;;4997121;28;20184;-83
2022/04/17 06:15:58;;;;;;;0.17;0.17;;;8.10;99.90;;;;;;5005203;28;20654;-84
2022/04/17 06:18:23;;;;;;;0.57;0.57;;;8.20;99.90;;;;;;4998463;28;20207;-84
2022/04/17 06:20:49;;;;;;;0.30;0.30;;;8.30;99.90;;;;;;5012682;28;20211;-84
2022/04/17 06:23:14;;;;;;;0.10;0.10;;;8.40;99.90;;;;;;4999417;28;20266;-84
2022/04/17 06:25:40;;;;;;;0.20;0.20;;;8.40;99.90;;;;;;5003952;28;20182;-83
2022/04/17 06:28:06;;;;;;;0.10;0.10;;;8.60;99.90;;;;;;4999690;28;20213;-84
2022/04/17 06:30:31;;;;;;;0.10;0.10;;;8.90;99.90;;;;;;4999443;28;20201;-84
2022/04/17 06:32:57;;;;;;;0.20;0.20;;;8.70;99.90;;;;;;4998648;28;20195;-84
2022/04/17 06:35:23;;;;;;;0.20;0.20;;;8.80;99.90;;;;;;5001003;28;20182;-83
2022/04/17 06:37:49;;;;;;;0.10;0.10;;;9.20;99.90;;;;;;5003537;28;20208;-84
2022/04/17 06:40:17;;;;;;;0.10;0.10;;;9.30;99.90;;;;;;5005752;28;20194;-84
2022/04/17 06:42:44;;;;;;;0.27;0.27;;;9.00;99.90;;;;;;5000108;28;20280;-84
2022/04/17 06:45:09;;;;;;;0.27;0.27;;;8.90;99.90;;;;;;5002613;28;20196;-84
2022/04/17 06:47:35;;;;;;;0.43;0.17;;;9.10;99.90;;;;;;5017274;28;20212;-84
2022/04/17 06:50:00;;;;;;;0.20;0.20;;;9.40;99.90;;;;;;4999876;28;20227;-84
2022/04/17 06:52:26;;;;;;;0.80;0.50;;;9.70;99.90;;;;;;5001589;28;20692;-84
2022/04/17 06:54:52;;;;;;;0.10;0.10;;;9.60;99.90;;;;;;5014607;28;20187;-84
2022/04/17 06:57:17;;;;;;;0.20;0.20;;;9.70;99.90;;;;;;5003399;28;20200;-84
2022/04/17 06:59:42;;;;;;;0.20;0.20;;;9.90;99.90;;;;;;5018808;28;20215;-84
2022/04/17 07:02:08;;;;;;;0.10;0.10;;;10.20;99.90;;;;;;5008349;28;20187;-84
2022/04/17 07:04:34;;;;;;;0.10;0.10;;;10.50;99.90;;;;;;5007814;28;20205;-84
2022/04/17 07:06:59;;;;;;;0.50;0.30;;;10.60;99.90;;;;;;5008090;28;20348;-84
2022/04/17 07:09:25;;;;;;;0.10;0.10;;;10.60;99.90;;;;;;5008208;28;20194;-84
2022/04/17 07:11:51;;;;;;;0.10;0.10;;;10.60;99.90;;;;;;5009008;28;20184;-84
2022/04/17 07:14:16;;;;;;;0.27;0.27;;;10.60;99.90;;;;;;5001458;28;20271;-82
2022/04/17 07:16:43;;;;;;;0.43;0.23;;;10.90;99.90;;;;;;5006206;28;20188;-82
2022/04/17 07:19:08;;;;;;;0.10;0.10;;;10.80;99.90;;;;;;5000678;28;20641;-81
2022/04/17 07:21:34;;;;;;;0.10;0.10;;;10.60;99.90;;;;;;5000107;28;20202;-82
2022/04/17 07:24:01;;;;;;;0.10;0.10;;;11.00;99.90;;;;;;5007084;28;20340;-81
2022/04/17 07:26:27;;;;;;;0.27;0.27;;;11.00;99.90;;;;;;5000558;28;20191;-81
2022/04/17 07:28:53;;;;;;;1.37;1.03;;;11.10;99.90;;;;;;5015759;28;20301;-81
2022/04/17 07:31:18;;;;;;;0.30;0.30;;;11.00;99.90;;;;;;5006386;28;20301;-81
2022/04/17 07:33:44;;;;;;;0.10;0.10;;;11.20;99.90;;;;;;5000225;28;20211;-81
2022/04/17 07:36:10;;;;;;;0.20;0.20;;;11.50;99.90;;;;;;5000807;28;20658;-81
2022/04/17 07:38:35;;;;;;;0.30;0.30;;;11.60;99.90;;;;;;5014211;28;20277;-81
2022/04/17 07:41:01;;;;;;;0.10;0.10;;;11.20;99.90;;;;;;5000306;28;20325;-82
2022/04/17 07:43:26;;;;;;;2.10;0.20;;;11.30;99.90;;;;;;5015798;28;20556;-82
2022/04/17 07:45:52;;;;;;;0.10;0.10;;;11.60;99.90;;;;;;5013127;28;20183;-82
2022/04/17 07:48:19;;;;;;;0.20;0.20;;;11.90;99.90;;;;;;5014162;28;20207;-81
2022/04/17 07:50:44;;;;;;;0.33;0.33;;;11.80;99.90;;;;;;4999218;28;20215;-82
2022/04/17 07:53:10;;;;;;;0.20;0.20;;;11.90;99.90;;;;;;5005999;28;20186;-82
2022/04/17 07:55:35;;;;;;;0.20;0.20;;;12.10;99.90;;;;;;4999865;28;20195;-82
2022/04/17 07:58:12;;;;;;;0.10;0.10;;;12.10;99.90;;;;;;5006117;28;20207;-82
2022/04/17 08:00:57;;;;;;;0.33;0.33;;;11.60;99.90;;;;;;5006201;28;20657;-81
2022/04/17 08:05:51;;;;;;;0.40;0.40;;;11.40;99.90;;;;;;5000907;28;21266;-82
2022/04/17 08:08:17;;;;;;;1.60;0.60;;;11.20;99.90;;;;;;5004569;28;20248;-81
2022/04/17 08:10:43;;;;;;;0.10;0.10;;;11.60;99.90;;;;;;5000097;28;20226;-81
2022/04/17 08:13:08;;;;;;;0.10;0.10;;;11.90;99.90;;;;;;5005591;28;20188;-82
2022/04/17 08:15:34;;;;;;;0.40;0.40;;;12.20;99.90;;;;;;5015599;28;20195;-81
2022/04/17 08:17:59;;;;;;;0.30;0.30;;;12.10;99.90;;;;;;5000022;28;20203;-81
2022/04/17 08:20:25;;;;;;;0.40;0.30;;;12.50;99.90;;;;;;5005712;28;20183;-81
2022/04/17 08:22:51;;;;;;;0.20;0.20;;;12.70;99.90;;;;;;5005314;28;20197;-82
2022/04/17 08:25:16;;;;;;;0.40;0.30;;;12.70;99.90;;;;;;5003567;28;20200;-81
2022/04/17 08:27:50;;;;;;;0.20;0.20;;;13.10;99.90;;;;;;4999734;28;20261;-84
2022/04/17 08:30:20;;;;;;;0.43;0.40;;;12.80;99.90;;;;;;4997329;28;20226;-84
2022/04/17 08:32:46;;;;;;;0.20;0.20;;;12.10;99.90;;;;;;5016417;28;20190;-84
2022/04/17 08:35:12;;;;;;;0.10;0.10;;;12.60;99.90;;;;;;5008667;28;20184;-84
2022/04/17 08:37:37;;;;;;;0.20;0.20;;;13.10;99.90;;;;;;5000794;28;20219;-85
2022/04/17 08:40:04;;;;;;;0.10;0.10;;;12.60;99.90;;;;;;5006985;28;20193;-84
2022/04/17 08:42:31;;;;;;;0.10;0.10;;;12.90;99.90;;;;;;4997932;28;20196;-84
2022/04/17 08:44:57;;;;;;;0.20;0.20;;;12.80;99.90;;;;;;5006221;28;20230;-84
2022/04/17 08:47:23;;;;;;;0.10;0.10;;;13.40;99.90;;;;;;5006728;28;20236;-84
2022/04/17 08:49:50;;;;;;;0.40;0.40;;;13.60;99.90;;;;;;5000334;28;20212;-84
2022/04/17 08:52:17;;;;;;;0.20;0.20;;;13.70;99.90;;;;;;4997583;28;20190;-84
2022/04/17 08:54:43;;;;;;;0.50;0.37;;;13.30;99.90;;;;;;5004775;28;20605;-84
2022/04/17 08:57:10;;;;;;;0.10;0.10;;;13.60;99.90;;;;;;5000261;28;20216;-83
2022/04/17 08:59:35;;;;;;;4.77;0.30;;;13.40;99.90;;;;;;5014187;28;20189;-84
2022/04/17 09:02:12;;;;;;;0.33;0.33;;;13.30;99.90;;;;;;5005664;28;20180;-83
2022/04/17 09:04:38;;;;;;;0.63;0.53;;;12.90;99.90;;;;;;4997569;28;20184;-84
2022/04/17 09:07:07;;;;;;;0.30;0.30;;;12.80;99.90;;;;;;5000652;28;20251;-84
2022/04/17 09:09:36;;;;;;;0.40;0.33;;;13.40;99.90;;;;;;5005986;28;20183;-84
2022/04/17 09:12:02;;;;;;;0.30;0.30;;;13.60;99.90;;;;;;4997696;28;20198;-84
2022/04/17 09:14:27;;;;;;;0.27;0.20;;;13.10;99.90;;;;;;4997969;28;20185;-83
2022/04/17 09:16:53;;;;;;;0.40;0.40;;;12.90;99.90;;;;;;5003906;28;20224;-84
2022/04/17 09:19:20;;;;;;;0.47;0.47;;;13.10;99.90;;;;;;4998672;28;20209;-84
2022/04/17 09:21:46;;;;;;;0.37;0.33;;;12.60;99.90;;;;;;5013633;28;20197;-84
2022/04/17 09:24:19;;;;;;;0.50;0.50;;;13.30;99.90;;;;;;4998738;28;20201;-84
2022/04/17 09:26:53;;;;;;;0.37;0.37;;;13.80;99.90;;;;;;4998386;28;20761;-84
2022/04/17 09:29:23;;;;;;;0.20;0.20;;;14.00;99.90;;;;;;4998410;28;20191;-84
2022/04/17 09:32:06;;;;;;;3.03;0.60;;;14.20;99.90;;;;;;5015595;28;20213;-84
2022/04/17 09:34:42;;;;;;;0.30;0.23;;;14.30;99.90;;;;;;5012531;28;20248;-84
2022/04/17 09:37:13;;;;;;;0.20;0.20;;;14.70;99.90;;;;;;5014634;28;20197;-84
2022/04/17 09:39:40;;;;;;;0.40;0.37;;;15.20;99.90;;;;;;4999239;28;20224;-84
2022/04/17 09:42:06;;;;;;;0.43;0.43;;;14.90;99.90;;;;;;4999409;28;20912;-84
2022/04/17 09:44:37;;;;;;;0.20;0.20;;;14.70;99.90;;;;;;4999361;28;21093;-84
2022/04/17 09:47:04;;;;;;;0.30;0.30;;;14.80;99.90;;;;;;5013363;28;20189;-84
2022/04/17 09:49:30;;;;;;;0.93;0.43;;;15.10;99.90;;;;;;5005917;28;20741;-84
2022/04/17 09:52:07;;;;;;;0.50;0.50;;;15.10;99.90;;;;;;5012918;28;20199;-84
2022/04/17 09:54:33;;;;;;;1.37;0.80;;;14.10;99.90;;;;;;4997709;28;20232;-84
2022/04/17 09:56:58;;;;;;;0.23;0.23;;;13.50;99.90;;;;;;4996479;28;20199;-83
2022/04/17 09:59:24;;;;;;;0.37;0.37;;;14.10;99.90;;;;;;5005907;28;20190;-84
2022/04/17 10:01:54;;;;;;;0.40;0.40;;;14.60;99.90;;;;;;4999193;28;20668;-84
2022/04/17 10:04:22;;;;;;;0.60;0.40;;;14.10;99.90;;;;;;4995589;28;20211;-85
2022/04/17 10:06:49;;;;;;;0.20;0.20;;;13.90;99.90;;;;;;4997459;28;20573;-85
2022/04/17 10:09:15;;;;;;;0.17;0.17;;;14.20;99.90;;;;;;4995975;28;20197;-84
2022/04/17 10:11:41;;;;;;;0.23;0.23;;;14.60;99.90;;;;;;5011229;28;20666;-84
2022/04/17 10:14:07;;;;;;;0.30;0.30;;;15.00;99.90;;;;;;4996772;28;20206;-82
2022/04/17 10:16:34;;;;;;;0.37;0.37;;;14.70;99.90;;;;;;5001750;28;20199;-82
2022/04/17 10:19:05;;;;;;;0.43;0.40;;;14.50;99.90;;;;;;4999904;28;20297;-82
2022/04/17 10:21:34;;;;;;;1.93;0.83;;;14.70;99.90;;;;;;5007159;28;20249;-82
2022/04/17 10:24:02;;;;;;;0.50;0.50;;;14.00;99.90;;;;;;5003144;28;20259;-82
2022/04/17 10:26:31;;;;;;;0.23;0.23;;;13.90;99.90;;;;;;5006003;28;21550;-82
2022/04/17 10:28:59;;;;;;;0.20;0.20;;;13.90;99.90;;;;;;5006227;28;20198;-82
2022/04/17 10:31:36;;;;;;;1.90;0.30;;;13.90;99.90;;;;;;5007658;28;20217;-83
2022/04/17 10:34:51;;;;;;;0.20;0.20;;;14.30;99.90;;;;;;5000089;28;20191;-82
2022/04/17 10:37:47;;;;;;;0.80;0.80;;;14.20;99.90;;;;;;5017372;28;20206;-82
2022/04/17 10:40:13;;;;;;;0.47;0.47;;;14.60;99.90;;;;;;5015156;28;20656;-82
2022/04/17 10:42:59;;;;;;;0.20;0.20;;;15.40;99.90;;;;;;5001137;28;20550;-82
2022/04/17 10:45:31;;;;;;;0.30;0.30;;;15.10;99.90;;;;;;5001260;28;20208;-82
2022/04/17 10:48:10;;;;;;;0.20;0.20;;;14.80;99.90;;;;;;5016674;28;20235;-82
2022/04/17 10:50:48;;;;;;;0.40;0.40;;;14.80;99.90;;;;;;5005922;28;20247;-83
2022/04/17 10:53:27;;;;;;;0.30;0.30;;;14.60;99.90;;;;;;5014811;28;20190;-82
2022/04/17 10:56:15;;;;;;;0.20;0.20;;;14.90;99.90;;;;;;5000574;28;20195;-83
2022/04/17 10:58:56;;;;;;;0.40;0.40;;;14.50;99.90;;;;;;5000203;28;20205;-83
2022/04/17 11:01:41;;;;;;;0.30;0.30;;;14.80;99.90;;;;;;5006026;28;20190;-82
2022/04/17 11:04:30;;;;;;;0.33;0.33;;;15.10;99.90;;;;;;5015247;28;20194;-82
2022/04/17 11:07:05;;;;;;;0.20;0.20;;;15.60;99.90;;;;;;5005519;28;20203;-82
2022/04/17 11:09:41;;;;;;;0.70;0.37;;;16.10;99.90;;;;;;5015668;28;20189;-82
2022/04/17 11:12:08;;;;;;;0.23;0.23;;;15.80;99.90;;;;;;5000427;28;20299;-82
2022/04/17 11:14:34;;;;;;;0.43;0.40;;;16.00;99.90;;;;;;5014719;28;20191;-82
2022/04/17 11:17:04;;;;;;;0.83;0.30;;;15.80;99.90;;;;;;5006102;28;20241;-81
2022/04/17 11:19:32;;;;;;;1.63;0.87;;;15.40;99.90;;;;;;5000724;28;20177;-82
2022/04/17 11:22:03;;;;;;;0.30;0.30;;;15.30;99.90;;;;;;5000421;28;20182;-82
2022/04/17 11:24:55;;;;;;;0.30;0.30;;;15.30;99.90;;;;;;5007462;28;20197;-82
2022/04/17 11:27:53;;;;;;;0.57;0.40;;;15.50;99.90;;;;;;5013652;28;20201;-83
2022/04/17 11:30:18;;;;;;;0.60;0.60;;;15.90;99.90;;;;;;4997903;28;20289;-82
2022/04/17 11:32:46;;;;;;;0.50;0.50;;;15.80;99.90;;;;;;5000632;28;20602;-82
2022/04/17 11:35:14;;;;;;;0.53;0.40;;;15.10;99.90;;;;;;5006218;28;20207;-81
2022/04/17 11:37:51;;;;;;;0.20;0.20;;;14.90;99.90;;;;;;5001111;28;20786;-81
2022/04/17 11:40:17;;;;;;;0.30;0.30;;;15.10;99.90;;;;;;5010529;28;21024;-81
2022/04/17 11:42:46;;;;;;;0.43;0.43;;;15.00;99.90;;;;;;5000117;28;20278;-81
2022/04/17 11:45:15;;;;;;;0.17;0.17;;;15.10;99.90;;;;;;5007832;28;20187;-81
2022/04/17 11:47:43;;;;;;;0.20;0.20;;;15.50;99.90;;;;;;5002247;28;20222;-81
2022/04/17 11:50:10;;;;;;;0.30;0.30;;;15.00;99.90;;;;;;5006036;28;20210;-81
2022/04/17 11:52:36;;;;;;;0.30;0.30;;;15.30;99.90;;;;;;4999021;28;21096;-81
2022/04/17 11:55:02;;;;;;;0.70;0.70;;;15.30;99.90;;;;;;4998986;28;20194;-81
2022/04/17 11:57:28;;;;;;;0.23;0.23;;;15.00;99.90;;;;;;5018935;28;20235;-81
2022/04/17 11:59:56;;;;;;;0.47;0.30;;;14.90;99.90;;;;;;5012438;28;20667;-81
2022/04/17 12:02:23;;;;;;;0.30;0.30;;;15.60;99.90;;;;;;4999631;28;20233;-87
2022/04/17 12:05:05;;;;;;;0.47;0.37;;;15.30;99.90;;;;;;4998028;28;20190;-87
2022/04/17 12:07:31;;;;;;;0.20;0.20;;;15.40;99.90;;;;;;4997745;28;20304;-81
2022/04/17 12:10:08;;;;;;;0.30;0.30;;;15.30;99.90;;;;;;5012671;28;20337;-81
2022/04/17 12:12:39;;;;;;;0.20;0.20;;;15.40;99.90;;;;;;4999203;28;20189;-81
2022/04/17 12:15:06;;;;;;;0.60;0.60;;;15.80;99.90;;;;;;5000124;28;20262;-80
2022/04/17 12:17:34;;;;;;;0.27;0.27;;;15.70;99.90;;;;;;5003156;28;20626;-82
2022/04/17 12:20:00;;;;;;;0.10;0.10;;;15.50;99.90;;;;;;4997125;28;20210;-80
2022/04/17 12:22:27;;;;;;;1.00;0.30;;;16.00;99.90;;;;;;5004800;28;20209;-82
2022/04/17 12:24:53;;;;;;;0.80;0.47;;;15.80;99.90;;;;;;5013535;28;20208;-82
2022/04/17 12:27:20;;;;;;;0.93;0.90;;;15.90;99.90;;;;;;5004694;28;20199;-81
2022/04/17 12:29:50;;;;;;;0.30;0.30;;;16.10;99.90;;;;;;5005977;28;20197;-81
2022/04/17 12:32:17;;;;;;;0.93;0.47;;;16.30;99.90;;;;;;4999798;28;20539;-81
2022/04/17 12:34:45;;;;;;;0.50;0.50;;;16.50;99.90;;;;;;5014391;28;20636;-82
2022/04/17 12:37:28;;;;;;;0.10;0.10;;;16.10;99.90;;;;;;5000153;28;20295;-82
2022/04/17 12:40:13;;;;;;;0.30;0.30;;;16.20;99.90;;;;;;5007539;28;20185;-82
2022/04/17 12:42:39;;;;;;;0.30;0.30;;;16.40;99.90;;;;;;4993298;28;20211;-82
2022/04/17 12:45:07;;;;;;;0.20;0.20;;;17.00;99.90;;;;;;4998134;28;20190;-82
2022/04/17 12:47:36;;;;;;;0.30;0.30;;;16.40;99.90;;;;;;5003043;28;20225;-82
2022/04/17 12:50:07;;;;;;;0.60;0.60;;;16.40;99.90;;;;;;4998331;28;20211;-82
2022/04/17 12:52:33;;;;;;;0.67;0.67;;;16.10;99.90;;;;;;4997270;28;20273;-81
2022/04/17 12:55:12;;;;;;;0.30;0.30;;;16.00;99.90;;;;;;4998807;28;20656;-82
2022/04/17 12:57:38;;;;;;;0.57;0.47;;;16.00;99.90;;;;;;4997759;28;20205;-82
2022/04/17 13:00:15;;;;;;;0.63;0.63;;;16.60;99.90;;;;;;4995237;28;20179;-82
2022/04/17 13:02:42;;;;;;;0.43;0.40;;;17.20;99.90;;;;;;4997286;28;20183;-82
2022/04/17 13:05:07;;;;;;;0.20;0.20;;;16.60;99.90;;;;;;5005032;28;20199;-82
2022/04/17 13:07:35;;;;;;;0.43;0.37;;;16.90;99.90;;;;;;5003696;28;20257;-82
2022/04/17 13:10:03;;;;;;;0.20;0.20;;;16.50;99.90;;;;;;4998317;28;20633;-83
2022/04/17 13:12:42;;;;;;;0.40;0.40;;;16.80;99.90;;;;;;4998826;28;20234;-82